HUF - Terre Haute Rgnl

Pirep is a free, collaborative database of all public and private airports located within the United States. All pilots are welcome to contribute, edit, and improve any airport they have local knowledge about, no registration required.
Uploaded photos will be licensed under a CC BY-SA 4.0 license. Please only upload photos you have the rights to use.
Tags
Public
Food
METAR / TAF
Events
Edit Tags
Camping
Lodging
Car Rental
Bicycles
Swimming
Golfing
Fishing
Hot Springs
Museum
Flying Clubs
Airpark
Upcoming Events
*
*
*

Where exactly on/near the airport is this event taking place?

Is there a webpage with more information for this event?

Who should be contacted for more information?

What is this event all about?

Repeat every
Description
Last updated: 2023-06-16 21:51:22 EDT
Transient Parking
Fuel Location
Landing & Tie-down Fees
Crew Car Availability
Flying Clubs
WiFi Access
Airport Statistics
Location: Terre Haute, IN
Elevation: 589ft
Sectional: St Louis
Activation date: Dec 1944
Fuel: 100LL, A (prices)
Runway 05/23: 9,021ft
Runway 14/32: 7,200ft
Access: Open to the public
Current Weather — VFR
  • Weather data is strictly informational and not for flight planning purposes.
  • METAR
    2024-05-26 07:27:00 EDT
    Ceiling Wind Temperature Dewpoint Weather Visbility
    Sky clear 110° @ 7kt 66°F 64°F N/A 10SM
    Clouds: Scattered @ 2,800ft
    Raw: KHUF 261127Z 11007KT 10SM SCT028 19/18 A2977 RMK AO2 T01940183 $
  • TAF
    2024-05-26 02:00:00 EDT – 2024-05-26 03:00:00 EDT
    Ceiling Wind Weather Visbility
    Sky clear 40° @ 3kt N/A 6SM
    Clouds: @ ft
    Raw: KHUF 260520Z 2606/2706 04003KT P6SM SKC FM260700 11008KT P6SM FEW020 BKN200 FM261400 16012G22KT P6SM BKN035 FM261500 17014G24KT 4SM RA VCTS OVC025CB FM261900 19012G22KT P6SM SCT040 BKN100 FM270000 19008KT 6SM -SHRA OVC050 PROB30 2701/2705 4SM TSRA OVC035CB FM270500 22010KT P6SM BKN040
  • TAF
    2024-05-26 03:00:00 EDT – 2024-05-26 10:00:00 EDT
    Ceiling Wind Weather Visbility
    20,000ft 110° @ 8kt N/A 6SM
    Clouds: Few @ 2,000ft, Broken @ 20,000ft
    Raw: KHUF 260520Z 2606/2706 04003KT P6SM SKC FM260700 11008KT P6SM FEW020 BKN200 FM261400 16012G22KT P6SM BKN035 FM261500 17014G24KT 4SM RA VCTS OVC025CB FM261900 19012G22KT P6SM SCT040 BKN100 FM270000 19008KT 6SM -SHRA OVC050 PROB30 2701/2705 4SM TSRA OVC035CB FM270500 22010KT P6SM BKN040
  • TAF
    2024-05-26 10:00:00 EDT – 2024-05-26 11:00:00 EDT
    Ceiling Wind Weather Visbility
    3,500ft 160° @ 12kt, gusts 22kt N/A 6SM
    Clouds: Broken @ 3,500ft
    Raw: KHUF 260520Z 2606/2706 04003KT P6SM SKC FM260700 11008KT P6SM FEW020 BKN200 FM261400 16012G22KT P6SM BKN035 FM261500 17014G24KT 4SM RA VCTS OVC025CB FM261900 19012G22KT P6SM SCT040 BKN100 FM270000 19008KT 6SM -SHRA OVC050 PROB30 2701/2705 4SM TSRA OVC035CB FM270500 22010KT P6SM BKN040
  • TAF
    2024-05-26 11:00:00 EDT – 2024-05-26 15:00:00 EDT
    Ceiling Wind Weather Visbility
    2,500ft 170° @ 14kt, gusts 24kt Rain, thunderstorm in vicinity 4SM
    Clouds: Overcast @ 2,500ft
    Raw: KHUF 260520Z 2606/2706 04003KT P6SM SKC FM260700 11008KT P6SM FEW020 BKN200 FM261400 16012G22KT P6SM BKN035 FM261500 17014G24KT 4SM RA VCTS OVC025CB FM261900 19012G22KT P6SM SCT040 BKN100 FM270000 19008KT 6SM -SHRA OVC050 PROB30 2701/2705 4SM TSRA OVC035CB FM270500 22010KT P6SM BKN040
  • TAF
    2024-05-26 15:00:00 EDT – 2024-05-26 20:00:00 EDT
    Ceiling Wind Weather Visbility
    10,000ft 190° @ 12kt, gusts 22kt N/A 6SM
    Clouds: Scattered @ 4,000ft, Broken @ 10,000ft
    Raw: KHUF 260520Z 2606/2706 04003KT P6SM SKC FM260700 11008KT P6SM FEW020 BKN200 FM261400 16012G22KT P6SM BKN035 FM261500 17014G24KT 4SM RA VCTS OVC025CB FM261900 19012G22KT P6SM SCT040 BKN100 FM270000 19008KT 6SM -SHRA OVC050 PROB30 2701/2705 4SM TSRA OVC035CB FM270500 22010KT P6SM BKN040
  • TAF
    2024-05-26 20:00:00 EDT – 2024-05-27 01:00:00 EDT
    Ceiling Wind Weather Visbility
    5,000ft 190° @ 8kt Light rain showers 6SM
    Clouds: Overcast @ 5,000ft
    Raw: KHUF 260520Z 2606/2706 04003KT P6SM SKC FM260700 11008KT P6SM FEW020 BKN200 FM261400 16012G22KT P6SM BKN035 FM261500 17014G24KT 4SM RA VCTS OVC025CB FM261900 19012G22KT P6SM SCT040 BKN100 FM270000 19008KT 6SM -SHRA OVC050 PROB30 2701/2705 4SM TSRA OVC035CB FM270500 22010KT P6SM BKN040
  • TAF
    2024-05-26 21:00:00 EDT – 2024-05-27 01:00:00 EDT
    Ceiling Wind Weather Visbility
    3,500ft ° @ kt Thunderstorm rain 4SM
    Clouds: Overcast @ 3,500ft
    Raw: KHUF 260520Z 2606/2706 04003KT P6SM SKC FM260700 11008KT P6SM FEW020 BKN200 FM261400 16012G22KT P6SM BKN035 FM261500 17014G24KT 4SM RA VCTS OVC025CB FM261900 19012G22KT P6SM SCT040 BKN100 FM270000 19008KT 6SM -SHRA OVC050 PROB30 2701/2705 4SM TSRA OVC035CB FM270500 22010KT P6SM BKN040
  • TAF
    2024-05-27 01:00:00 EDT – 2024-05-27 02:00:00 EDT
    Ceiling Wind Weather Visbility
    4,000ft 220° @ 10kt N/A 6SM
    Clouds: Broken @ 4,000ft
    Raw: KHUF 260520Z 2606/2706 04003KT P6SM SKC FM260700 11008KT P6SM FEW020 BKN200 FM261400 16012G22KT P6SM BKN035 FM261500 17014G24KT 4SM RA VCTS OVC025CB FM261900 19012G22KT P6SM SCT040 BKN100 FM270000 19008KT 6SM -SHRA OVC050 PROB30 2701/2705 4SM TSRA OVC035CB FM270500 22010KT P6SM BKN040
Click/tap to add an annotation marker to the map
Airport Webcams
No webcams added yet.
Direct links to live image URLs will be displayed inline on this page. URLs to separate webpages will be linked to.
URL:
Direct links to live image URLs will be displayed inline on this page. URLs to separate webpages will be linked to.
URL:
Remarks
  • Clsd to sked acr ops gtr than 9 psgr seats. unsked acr ops gtr than 30 psgr seats rqr ppr - ctc 812-877-2524 or 812-877-2252. index b arff capability avbl on req.
  • Birds on & invof arpt.
  • Acft svcs avbl 2200 & 0600 subject to after-hrs callout fee.
  • Lndg fee for civilian acft over 12,500 lbs.
  • Us customs user fee arpt.
Comments
Leave a comment What was your experience like at this airport?